NCAR-RAP Real-Time Weather Data

Output produced by METARs form (12 August 2020  18:16 UTC)
found at http://weather.rap.ucar.edu/surface/
 
KLIT 121753Z 15005KT 10SM OVC023 27/22 A3004 RMK A02 SLP173 T02670222 10272 20222 50000
KLIT 121653Z 09003KT 10SM FEW010 BKN015 OVC020 26/23 A3004 RMK A02 SLP174 T02580223
KLIT 121642Z 09004KT 10SM SCT010 OVC015 25/23 A3004 RMK A02 T02520223
KLIT 121553Z COR 1004KT 10SM BKN008 OVC110 25/23 A3005 RMK A02 SLP173 T02530223
KLIT 121453Z 05005KT 7SM OVC006 25/23 A3004 RMK A02 SLP169 T02510234 51014
KLIT 121353Z 02004KT 7SM OVC006 27/23 A3004 RMK A02 SLP169 T02710233
KLIT 121328Z 36004KT 7SM BKN007 OVC100 26/23 A3003 RMK SLP188 T02640232
KLIT 121313Z 36003KT 10SM BR BKN008 BKN090 23/22 A3002 RMK AO2 CIG 005V009 T02280217
KLIT 121253Z 04005KT 6SM BR SCT004 OVC110 23/22 A3002 RMK AO2 SLP165 T02280217
KLIT 121153Z 04004KT 5SM BR FEW004 SCT030 BKN120 23/22 A3000 RMK AO2 SLP158 60012 70012 T02280217 10233 20222 55001
KLIT 121053Z 00000KT 5SM BR FEW006 SCT055 OVC100 23/22 A2998 RMK AO2 RAB0955E52 SLP153 P0003 T02280217
KLIT 120953Z 09005KT 9SM FEW008 SCT055 BKN100 23/22 A2999 RMK AO2 SLP156 T02280217
KLIT 120853Z 16003KT 10SM FEW008 BKN045 OVC100 22/22 A3000 RMK AO2 RAE28 SLP157 P0007 60009 T02220217 56002
KLIT 120834Z COR 00000KT 10SM FEW008 BKN045 OVC100 22/21 A3000 RMK AO2 RAE28 CB MOVD SE P0007 T02220211
KLIT 120753Z 29005KT 5SM -RA BR FEW010 BKN055 OVC100 23/22 A3000 RMK AO2 SLP158 OCNL LTGICCC DSNT S CB DSNT S MOV SE P0001 T02280217
KLIT 120711Z 36004KT 10SM -RA FEW003 BKN055 OVC100 23/21 A2999 RMK AO2 LTG DSNT SW OCNL LTGICCC DSNT SW CB DSNT SW MOV E P0000 T02280211
KLIT 120653Z 05003KT 10SM -RA SCT055 BKN110 23/22 A2999 RMK AO2 LTG DSNT SW RAB0555 SLP156 P0001 T02280217
KLIT 120553Z 03003KT 10SM BKN110 23/21 A3001 RMK AO2 SLP160 T02330211 10239 20222 403610222 50004
KLIT 120453Z 00000KT 10SM BKN110 23/21 A3001 RMK AO2 SLP161 T02280211
KLIT 120353Z 06006KT 10SM FEW009 BKN150 BKN200 23/21 A2999 RMK AO2 SLP156 T02280211
KLIT 120335Z 00000KT 10SM SCT009 BKN200 23/21 A3000 RMK AO2 T02280211
KLIT 120308Z 08003KT 10SM BKN009 BKN200 23/21 A2999 RMK AO2 T02280211
KLIT 120253Z 30003KT 10SM FEW011 SCT040 BKN200 23/21 A2999 RMK AO2 SLP155 T02280211 55000
KLIT 120153Z 13005KT 10SM SCT060 BKN150 BKN250 23/22 A2995 RMK AO2 SLP142 T02280217
KLIT 120053Z 00000KT 10SM FEW025 BKN060 BKN150 OVC250 23/21 A2999 RMK AO2 SLP153 BINOVC T02330206
KLIT 112353Z 00000KT 10SM FEW025 SCT048 SCT110 OVC250 23/21 A2999 RMK AO2 RAE43 SLP157 P0000 60000 T02330211 10361 20233 51003
KLIT 112253Z 02005KT 10SM -RA FEW043 OVC150 23/21 A2999 RMK AO2 LTG DSNT E AND SE RAB49 SLP156 P0000 T02330211
KLIT 112214Z 35013KT 10SM FEW032 SCT090 OVC150 23/21 A3001 RMK AO2 LTG DSNT ALQDS T02330211
KLIT 112153Z 35006KT 10SM SCT013 BKN018 BKN055 OVC150 23/21 A3002 RMK AO2 PK WND 34026/2058 RAB10E18B42E50 SLP166 P0000 T02330211
KLIT 112142Z 01011KT 10SM -RA SCT011 BKN018 BKN055 OVC150 23/21 A3002 RMK AO2 PK WND 34026/2058 LTG DSNT ALQDS RAB10E18B42 P0000 T02330211
KLIT 112053Z 36017KT 10SM FEW046 BKN070 BKN250 27/22 A2998 RMK AO2 LTG DSNT ALQDS SLP152 WSHFT 2040 OCNL LTGICCG DSNT NW-N CB DSNT NW-N MOV E T02720217 53010
KLIT 112046Z 03016KT 10SM BKN055 BKN070 BKN250 27/21 A3000 RMK AO2 LTG DSNT ALQDS PRESRR WSHFT 2040 OCNL LTGICCG DSNT NW-N CB DSNT NW-N MOV E T02720211
KLIT 111953Z COR 23007G16KT 10SM SCT055TCU BKN250 34/22 A2993 RMK AO2 LTG DSNT W-NE SLP134 SCT V BKN TCU ALQDS CB DSNT NW-NE MOV E T03390217
KLIT 111853Z 20013KT 10SM BKN050TCU BKN250 34/22 A2993 RMK AO2 LTG DSNT N AND NE SLP132 TCU ALQDS CB DSNT N AND NE MOV E T03390217
KLIT 111753Z 19008KT 10SM SCT045TCU BKN250 35/23 A2995 RMK AO2 LTG DSNT NE AND E SLP140 TCU NW-N CB DSNT NE AND NW MOV E T03500228 10356 20239 58019
KLIT 111653Z 22006KT 10SM SCT045TCU BKN250 34/23 A2999 RMK AO2 LTG DSNT NE SLP154 TCU N T03390233
KLIT 111553Z VRB03KT 10SM FEW040 SCT100 BKN250 32/23 A3000 RMK AO2 SLP158 TCU DSNT W T03220228
KLIT 111453Z 26009KT 10SM BKN250 31/23 A3001 RMK AO2 SLP161 T03110233 51008
KLIT 111353Z 25010G14KT 10SM BKN250 28/23 A3001 RMK AO2 SLP160 T02830228
KLIT 111253Z 23006KT 10SM SCT250 27/22 A2999 RMK AO2 SLP155 T02670222
KLIT 111153Z 15003KT 7SM SCT250 24/22 A2998 RMK AO2 SLP152 T02390222 10272 20233 53005
KLIT 111053Z 15004KT 10SM SCT250 24/22 A2997 RMK AO2 SLP149 T02390222
KLIT 110953Z 19003KT 10SM FEW250 24/22 A2997 RMK AO2 SLP147 T02440217
KLIT 110853Z 21004KT 10SM CLR 26/22 A2997 RMK AO2 SLP147 T02560217 56001
KLIT 110753Z 23003KT 10SM CLR 26/22 A2997 RMK AO2 SLP146 T02610222
KLIT 110653Z 27003KT 10SM FEW250 27/22 A2997 RMK AO2 SLP146 T02670217
KLIT 110553Z 20003KT 10SM FEW250 27/22 A2997 RMK AO2 SLP146 T02720222 10333 20267 403610239 50003
KLIT 110453Z 21004KT 10SM FEW250 27/22 A2998 RMK AO2 SLP149 T02670222
KLIT 110353Z 21003KT 10SM FEW250 28/22 A2997 RMK AO2 SLP148 T02830217
KLIT 110253Z 00000KT 10SM FEW150 SCT250 28/22 A2996 RMK AO2 SLP144 T02830222 53009
KLIT 110153Z 19004KT 10SM SCT150 SCT250 29/21 A2994 RMK AO2 SLP138 T02940211
KLIT 110053Z 21006KT 10SM SCT150 SCT250 31/21 A2994 RMK AO2 SLP136 T03110211
KLIT 102353Z 22011KT 10SM FEW055 FEW250 33/20 A2993 RMK AO2 SLP135 T03330200 10361 20333 55015
KLIT 102253Z 22011KT 10SM FEW055 34/21 A2993 RMK AO2 SLP133 T03440211
KLIT 102153Z 22012KT 10SM FEW060 36/21 A2995 RMK AO2 SLP141 T03560206
KLIT 102053Z 24012KT 10SM SCT055 36/22 A2998 RMK AO2 SLP150 T03560217 58020
KLIT 101953Z 24009G17KT 200V260 10SM SCT045 36/22 A3000 RMK AO2 SLP157 T03610217
KLIT 101853Z 23011KT 190V280 10SM SCT040 36/22 A3002 RMK AO2 SLP162 T03560222